Time;durP1;ratioP1;P1;durP2;ratioP2;P2;SDS_P1;SDS_P2;PMS_P1;PMS_P2;Temp;Humidity;BMP_temperature;BMP_pressure;BME280_temperature;BME280_humidity;BME280_pressure;Samples;Min_cycle;Max_cycle;Signal;HPM_P1;HPM_P2
2022/12/28 00:00:52;;;;;;;12.40;7.88;;;-1.20;99.90;;;;;;5071724;28;20099;-52
2022/12/28 00:03:18;;;;;;;12.73;7.72;;;-1.20;99.90;;;;;;5071251;28;20074;-52
2022/12/28 00:05:44;;;;;;;11.75;7.80;;;-1.20;99.90;;;;;;5071943;28;20048;-56
2022/12/28 00:08:10;;;;;;;7.57;6.53;;;-1.20;99.90;;;;;;5070551;28;20486;-53
2022/12/28 00:10:36;;;;;;;16.73;7.47;;;-1.20;99.90;;;;;;5061487;28;20045;-54
2022/12/28 00:13:01;;;;;;;11.23;7.25;;;-1.20;99.90;;;;;;5052331;28;20028;-54
2022/12/28 00:15:27;;;;;;;12.25;7.28;;;-1.20;99.90;;;;;;5052184;28;20025;-53
2022/12/28 00:17:52;;;;;;;10.18;7.50;;;-1.20;99.90;;;;;;5052279;28;20021;-53
2022/12/28 00:20:18;;;;;;;7.88;7.00;;;-1.20;99.90;;;;;;5050766;28;20090;-56
2022/12/28 00:22:44;;;;;;;8.77;5.90;;;-1.20;99.90;;;;;;5052309;28;20108;-52
2022/12/28 00:25:09;;;;;;;9.75;6.65;;;-1.20;99.90;;;;;;5059834;28;20120;-54
2022/12/28 00:27:35;;;;;;;8.38;7.30;;;-1.20;99.90;;;;;;5072065;28;20028;-55
2022/12/28 00:30:01;;;;;;;10.18;6.68;;;-1.30;99.90;;;;;;5071995;28;20031;-53
2022/12/28 00:32:27;;;;;;;8.10;6.00;;;-1.30;99.90;;;;;;5071813;28;20020;-53
2022/12/28 00:34:53;;;;;;;8.77;5.93;;;-1.30;99.90;;;;;;5070776;28;20029;-55
2022/12/28 00:37:18;;;;;;;10.18;7.13;;;-1.30;99.90;;;;;;5071782;28;20027;-50
2022/12/28 00:39:44;;;;;;;10.68;6.20;;;-1.40;99.90;;;;;;5065216;28;20025;-55
2022/12/28 00:42:10;;;;;;;5.90;5.30;;;-1.40;99.90;;;;;;5050564;28;20037;-54
2022/12/28 00:44:35;;;;;;;5.82;5.20;;;-1.40;99.90;;;;;;5051632;28;20029;-53
2022/12/28 00:47:01;;;;;;;6.50;5.60;;;-1.40;99.90;;;;;;5051871;28;20096;-51
2022/12/28 00:49:27;;;;;;;7.85;6.03;;;-1.40;99.90;;;;;;5051683;28;20028;-51
2022/12/28 00:51:52;;;;;;;9.30;5.40;;;-1.40;99.90;;;;;;5051653;28;20059;-54
2022/12/28 00:54:18;;;;;;;8.23;5.43;;;-1.40;99.90;;;;;;5056256;28;20035;-52
2022/12/28 00:56:45;;;;;;;7.63;5.72;;;-1.50;99.90;;;;;;5071688;28;20364;-54
2022/12/28 00:59:10;;;;;;;5.65;5.15;;;-1.50;99.90;;;;;;5071614;28;20027;-54
2022/12/28 01:01:36;;;;;;;10.30;5.47;;;-1.50;99.90;;;;;;5071502;28;20535;-51
2022/12/28 01:04:02;;;;;;;6.60;5.13;;;-1.50;99.90;;;;;;5071620;28;20016;-53
2022/12/28 01:06:28;;;;;;;9.38;6.43;;;-1.50;99.90;;;;;;5071482;28;20059;-54
2022/12/28 01:08:54;;;;;;;7.75;6.30;;;-1.40;99.90;;;;;;5056598;28;20457;-55
2022/12/28 01:11:22;;;;;;;49.35;25.75;;;-1.50;99.90;;;;;;5051358;28;20041;-52
2022/12/28 01:13:49;;;;;;;40.78;24.88;;;-1.50;99.90;;;;;;5070290;28;20643;-54
2022/12/28 01:16:24;;;;;;;34.25;19.95;;;-1.60;99.90;;;;;;5071234;28;20024;-52
2022/12/28 01:18:52;;;;;;;22.52;13.80;;;-1.70;99.90;;;;;;5071487;28;20425;-50
2022/12/28 01:21:20;;;;;;;15.27;10.70;;;-1.70;99.90;;;;;;5071394;28;20032;-53
2022/12/28 01:23:47;;;;;;;19.00;11.48;;;-1.70;99.90;;;;;;5071093;28;20031;-53
2022/12/28 01:26:14;;;;;;;13.02;7.50;;;-1.70;99.90;;;;;;5070782;28;20048;-53
2022/12/28 01:28:40;;;;;;;13.55;8.30;;;-1.70;99.90;;;;;;5051377;28;20444;-53
2022/12/28 01:31:07;;;;;;;10.50;7.40;;;-1.80;99.90;;;;;;5051235;28;20040;-54
2022/12/28 01:33:33;;;;;;;9.80;8.05;;;-1.80;99.90;;;;;;5051160;28;20064;-52
2022/12/28 01:36:03;;;;;;;16.58;11.40;;;-1.80;99.90;;;;;;5051290;28;20495;-54
2022/12/28 01:38:29;;;;;;;17.02;12.27;;;-1.90;99.90;;;;;;5049933;28;20021;-53
2022/12/28 01:40:55;;;;;;;19.52;12.57;;;-1.90;99.90;;;;;;5051262;28;20040;-54
2022/12/28 01:43:40;;;;;;;11.80;8.30;;;-1.90;99.90;;;;;;5061678;28;20037;-53
2022/12/28 01:46:33;;;;;;;11.73;8.35;;;-1.90;99.90;;;;;;5049920;28;20403;-53
2022/12/28 01:49:09;;;;;;;11.88;7.97;;;-1.90;99.90;;;;;;5049676;28;20033;-52
2022/12/28 01:51:50;;;;;;;7.97;6.50;;;-1.90;99.90;;;;;;5050907;28;20032;-55
2022/12/28 01:54:18;;;;;;;10.55;7.68;;;-1.90;99.90;;;;;;5050976;28;20029;-52
2022/12/28 01:56:46;;;;;;;8.25;6.35;;;-2.00;99.90;;;;;;5051141;28;20025;-56
2022/12/28 01:59:11;;;;;;;7.50;6.05;;;-1.90;99.90;;;;;;5050938;28;20036;-54
2022/12/28 02:01:37;;;;;;;12.52;5.63;;;-2.00;99.90;;;;;;5051045;28;20111;-52
2022/12/28 02:04:03;;;;;;;9.07;6.90;;;-2.00;99.90;;;;;;5051106;28;20107;-53
2022/12/28 02:06:30;;;;;;;10.07;7.38;;;-2.00;99.90;;;;;;5050855;28;20452;-56
2022/12/28 02:09:17;;;;;;;11.38;7.82;;;-2.00;99.90;;;;;;5050808;28;20052;-53
2022/12/28 02:11:43;;;;;;;8.93;6.60;;;-2.00;99.90;;;;;;5053200;28;20041;-53
2022/12/28 02:14:12;;;;;;;8.10;6.20;;;-2.00;99.90;;;;;;5070237;28;20043;-50
2022/12/28 02:16:37;;;;;;;12.55;8.75;;;-2.00;99.90;;;;;;5070799;28;20017;-53
2022/12/28 02:19:05;;;;;;;9.65;6.72;;;-2.00;99.90;;;;;;5070952;28;20095;-50
2022/12/28 02:21:54;;;;;;;9.10;7.05;;;-2.00;99.90;;;;;;5070682;28;20048;-50
2022/12/28 02:24:38;;;;;;;11.48;7.72;;;-2.00;99.90;;;;;;5070723;28;20048;-51
2022/12/28 02:27:48;;;;;;;10.98;7.78;;;-2.00;99.90;;;;;;5070542;28;20082;-50
2022/12/28 02:30:15;;;;;;;10.55;6.65;;;-2.00;99.90;;;;;;5069579;28;20128;-51
2022/12/28 02:32:53;;;;;;;14.30;7.43;;;-2.00;99.90;;;;;;5070926;28;20398;-54
2022/12/28 02:35:29;;;;;;;8.70;6.38;;;-2.00;99.90;;;;;;5072964;28;20032;-53
2022/12/28 02:38:19;;;;;;;9.90;6.65;;;-2.00;99.90;;;;;;5074363;28;20028;-54
2022/12/28 02:40:56;;;;;;;9.00;6.75;;;-2.10;99.90;;;;;;5074244;28;20415;-52
2022/12/28 02:43:22;;;;;;;7.28;6.57;;;-2.10;99.90;;;;;;5056608;28;20035;-51
2022/12/28 02:51:57;;;;;;;6.90;6.20;;;-2.20;99.90;;;;;;5071321;28;20487;-53
2022/12/28 02:57:34;;;;;;;9.55;5.72;;;-2.10;99.90;;;;;;5054741;28;20064;-52
2022/12/28 03:00:07;;;;;;;9.02;6.80;;;-2.20;99.90;;;;;;5053868;28;20392;-53
2022/12/28 03:02:58;;;;;;;7.60;6.72;;;-2.20;99.90;;;;;;5053529;28;20438;-52
2022/12/28 03:09:24;;;;;;;6.07;5.53;;;-2.20;99.90;;;;;;5058172;28;20502;-53
2022/12/28 03:11:56;;;;;;;7.55;5.90;;;-2.30;99.90;;;;;;5065182;28;20032;-53
2022/12/28 03:14:46;;;;;;;6.90;5.30;;;-2.30;99.90;;;;;;5073458;28;20115;-51
2022/12/28 03:31:19;;;;;;;11.80;5.32;;;-2.40;99.90;;;;;;5053209;28;20040;-52
2022/12/28 03:33:47;;;;;;;11.18;5.70;;;-2.30;99.90;;;;;;5053440;28;20060;-52
2022/12/28 03:36:43;;;;;;;11.40;6.35;;;-2.40;99.90;;;;;;5053293;28;20051;-51
2022/12/28 03:39:37;;;;;;;8.02;5.95;;;-2.40;99.90;;;;;;5053104;28;20100;-54
2022/12/28 03:45:13;;;;;;;7.05;6.32;;;-2.40;99.90;;;;;;5067268;28;20135;-52
2022/12/28 03:47:41;;;;;;;9.13;6.65;;;-2.40;99.90;;;;;;5072921;28;20082;-53
2022/12/28 03:50:08;;;;;;;6.70;4.90;;;-2.40;99.90;;;;;;5073002;28;20024;-54
2022/12/28 03:52:34;;;;;;;10.00;5.25;;;-2.40;99.90;;;;;;5072539;28;20056;-50
2022/12/28 03:55:00;;;;;;;9.93;5.80;;;-2.30;99.90;;;;;;5072751;28;20056;-54
2022/12/28 03:57:25;;;;;;;8.13;5.82;;;-2.40;99.90;;;;;;5072569;28;20572;-54
2022/12/28 03:59:51;;;;;;;6.18;5.57;;;-2.30;99.90;;;;;;5056990;28;20029;-54
2022/12/28 04:02:16;;;;;;;9.77;5.22;;;-2.30;99.90;;;;;;5052525;28;20349;-51
2022/12/28 04:04:42;;;;;;;6.93;5.28;;;-2.30;99.90;;;;;;5053742;28;20025;-52
2022/12/28 04:07:08;;;;;;;9.60;5.50;;;-2.30;99.90;;;;;;5052638;28;20036;-55
2022/12/28 04:09:33;;;;;;;5.13;4.63;;;-2.40;99.90;;;;;;5050974;28;20504;-50
2022/12/28 04:12:00;;;;;;;6.60;5.82;;;-2.40;99.90;;;;;;5052496;28;20474;-52
2022/12/28 04:14:25;;;;;;;5.72;4.78;;;-2.40;99.90;;;;;;5071811;28;20109;-51
2022/12/28 04:16:51;;;;;;;11.15;5.47;;;-2.40;99.90;;;;;;5072274;28;20067;-54
2022/12/28 04:19:16;;;;;;;6.00;5.43;;;-2.40;99.90;;;;;;5071523;28;20496;-53
2022/12/28 04:21:42;;;;;;;5.68;5.18;;;-2.40;99.90;;;;;;5072114;28;20051;-53
2022/12/28 04:24:08;;;;;;;5.43;4.63;;;-2.50;99.90;;;;;;5072217;28;20073;-54
2022/12/28 04:26:33;;;;;;;6.40;5.80;;;-2.50;99.90;;;;;;5072186;28;20337;-55
2022/12/28 04:29:00;;;;;;;8.95;5.93;;;-2.40;99.90;;;;;;5072046;28;20397;-51
2022/12/28 04:31:28;;;;;;;9.13;6.43;;;-2.40;99.90;;;;;;5070205;28;20036;-53
2022/12/28 04:33:56;;;;;;;6.95;6.25;;;-2.40;99.90;;;;;;5071721;28;20095;-51
2022/12/28 04:36:22;;;;;;;11.98;6.22;;;-2.40;99.90;;;;;;5071751;28;20032;-53
2022/12/28 04:38:48;;;;;;;9.27;5.75;;;-2.30;99.90;;;;;;5071993;28;20016;-52
2022/12/28 04:41:14;;;;;;;7.68;5.78;;;-2.30;99.90;;;;;;5071922;28;20468;-53
2022/12/28 04:43:40;;;;;;;6.00;5.13;;;-2.30;99.90;;;;;;5071844;28;20029;-53
2022/12/28 04:46:09;;;;;;;8.02;6.25;;;-2.30;99.90;;;;;;5071911;28;20032;-53
2022/12/28 04:48:35;;;;;;;7.43;5.82;;;-2.30;99.90;;;;;;5057842;28;20029;-52
2022/12/28 04:51:15;;;;;;;8.70;5.72;;;-2.30;99.90;;;;;;5051692;28;20104;-50
2022/12/28 04:53:41;;;;;;;12.27;5.63;;;-2.30;99.90;;;;;;5051876;28;20027;-51
2022/12/28 04:56:09;;;;;;;11.77;5.70;;;-2.30;99.90;;;;;;5050347;28;20021;-51
2022/12/28 04:58:35;;;;;;;5.82;5.18;;;-2.30;99.90;;;;;;5051146;28;20104;-55
2022/12/28 05:01:05;;;;;;;21.30;4.95;;;-2.30;99.90;;;;;;5051637;28;20106;-53
2022/12/28 05:03:31;;;;;;;5.78;5.28;;;-2.20;99.90;;;;;;5065622;28;20036;-52
2022/12/28 05:06:06;;;;;;;8.77;5.70;;;-2.20;99.90;;;;;;5070708;28;20032;-54
2022/12/28 05:08:33;;;;;;;6.78;5.25;;;-2.20;99.90;;;;;;5070482;28;20031;-56
2022/12/28 05:11:04;;;;;;;9.85;6.45;;;-2.20;99.90;;;;;;5070692;28;20040;-50
2022/12/28 05:13:30;;;;;;;5.40;4.90;;;-2.20;99.90;;;;;;5069207;28;20063;-52
2022/12/28 05:16:08;;;;;;;5.85;5.35;;;-2.10;99.90;;;;;;5070560;28;20064;-52
2022/12/28 05:18:34;;;;;;;8.35;6.13;;;-2.10;99.90;;;;;;5052666;28;20021;-52
2022/12/28 05:21:06;;;;;;;15.38;6.25;;;-2.10;99.90;;;;;;5051114;28;20031;-53
2022/12/28 05:23:33;;;;;;;5.93;5.43;;;-2.10;99.90;;;;;;5051136;28;20111;-54
2022/12/28 05:25:58;;;;;;;6.93;5.18;;;-2.10;99.90;;;;;;5051436;28;20028;-53
2022/12/28 05:28:25;;;;;;;5.97;5.20;;;-2.10;99.90;;;;;;5051216;28;20384;-55
2022/12/28 05:30:52;;;;;;;9.85;6.00;;;-2.00;99.90;;;;;;5051140;28;20082;-55
2022/12/28 05:33:18;;;;;;;6.68;5.47;;;-1.90;99.90;;;;;;5068369;28;20031;-55
2022/12/28 05:35:44;;;;;;;12.27;5.45;;;-1.90;99.90;;;;;;5071287;28;20039;-53
2022/12/28 05:38:10;;;;;;;8.00;5.07;;;-1.90;99.90;;;;;;5071246;28;20017;-56
2022/12/28 05:40:36;;;;;;;7.43;5.93;;;-1.90;99.90;;;;;;5069827;28;20128;-54
2022/12/28 05:43:01;;;;;;;7.72;5.10;;;-1.80;99.90;;;;;;5069973;28;20440;-52
2022/12/28 05:45:27;;;;;;;5.78;4.85;;;-1.80;99.90;;;;;;5071171;28;20484;-53
2022/12/28 05:47:56;;;;;;;7.57;5.60;;;-1.80;99.90;;;;;;5058282;28;20037;-54
2022/12/28 05:50:21;;;;;;;8.52;4.70;;;-1.70;99.90;;;;;;5050841;28;20037;-49
2022/12/28 05:52:47;;;;;;;8.25;6.50;;;-1.70;99.90;;;;;;5050973;28;20095;-54
2022/12/28 05:55:13;;;;;;;7.13;5.60;;;-1.70;99.90;;;;;;5049593;28;20022;-52
2022/12/28 05:57:38;;;;;;;7.50;5.85;;;-1.70;99.90;;;;;;5051116;28;20017;-49
2022/12/28 06:00:05;;;;;;;12.95;5.07;;;-1.60;99.90;;;;;;5051112;28;20082;-51
2022/12/28 06:02:31;;;;;;;6.65;5.57;;;-1.60;99.90;;;;;;5050802;28;20064;-54
2022/12/28 06:04:57;;;;;;;14.85;10.07;;;-1.60;99.90;;;;;;5050707;28;20472;-51
2022/12/28 06:07:22;;;;;;;13.23;7.40;;;-1.50;99.90;;;;;;5050848;28;20064;-54
2022/12/28 06:09:48;;;;;;;11.20;8.45;;;-1.50;99.90;;;;;;5052464;28;20068;-53
2022/12/28 06:12:14;;;;;;;38.10;17.27;;;-1.50;99.90;;;;;;5054403;28;20029;-53
2022/12/28 06:14:40;;;;;;;56.13;23.15;;;-1.50;99.90;;;;;;5053322;28;20025;-54
2022/12/28 06:17:05;;;;;;;33.03;15.15;;;-1.40;99.90;;;;;;5069744;28;20077;-54
2022/12/28 06:19:31;;;;;;;25.38;12.02;;;-1.30;99.90;;;;;;5074065;28;20048;-55
2022/12/28 06:21:57;;;;;;;33.55;20.13;;;-1.20;99.90;;;;;;5074066;28;20083;-53
2022/12/28 06:24:22;;;;;;;36.83;19.65;;;-1.20;99.90;;;;;;5074253;28;20046;-51
2022/12/28 06:26:48;;;;;;;26.67;15.00;;;-1.10;99.90;;;;;;5073888;28;20029;-53
2022/12/28 06:29:14;;;;;;;18.23;10.10;;;-1.10;99.90;;;;;;5074101;28;20032;-54
2022/12/28 06:31:45;;;;;;;14.63;8.23;;;-1.00;99.90;;;;;;5064664;28;20078;-54
2022/12/28 06:34:11;;;;;;;18.80;8.52;;;-0.90;99.90;;;;;;5063722;28;20070;-54
2022/12/28 06:36:42;;;;;;;14.52;8.15;;;-0.90;99.90;;;;;;5074043;28;20029;-54
2022/12/28 06:39:10;;;;;;;21.50;11.82;;;-0.90;99.90;;;;;;5074178;28;20028;-56
2022/12/28 06:41:36;;;;;;;21.15;12.48;;;-0.90;99.90;;;;;;5073992;28;20031;-54
2022/12/28 06:44:06;;;;;;;19.55;10.80;;;-0.90;99.90;;;;;;5073941;28;20021;-56
2022/12/28 06:46:31;;;;;;;15.00;8.55;;;-0.90;99.90;;;;;;5062978;28;20472;-49
2022/12/28 06:48:57;;;;;;;10.93;6.32;;;-1.00;99.90;;;;;;5053883;28;20025;-52
2022/12/28 06:51:28;;;;;;;8.07;6.38;;;-1.10;99.90;;;;;;5060858;28;20021;-51
2022/12/28 06:53:54;;;;;;;17.45;7.28;;;-1.20;99.90;;;;;;5072494;28;20468;-50
2022/12/28 06:56:29;;;;;;;12.30;8.23;;;-1.20;99.90;;;;;;5073705;28;20025;-54
2022/12/28 06:58:55;;;;;;;8.15;7.03;;;-1.30;99.90;;;;;;5073656;28;20032;-56
2022/12/28 07:01:27;;;;;;;10.50;6.70;;;-1.40;99.90;;;;;;5072928;28;20055;-57
2022/12/28 07:03:55;;;;;;;10.40;7.82;;;-1.40;99.90;;;;;;5073448;28;20017;-54
2022/12/28 07:06:22;;;;;;;13.40;8.90;;;-1.40;99.90;;;;;;5073030;28;20047;-54
2022/12/28 07:08:49;;;;;;;20.48;9.80;;;-1.50;99.90;;;;;;5071623;28;20055;-53
2022/12/28 07:11:18;;;;;;;19.17;8.75;;;-1.50;99.90;;;;;;5073109;28;20119;-55
2022/12/28 07:13:44;;;;;;;15.80;9.05;;;-1.60;99.90;;;;;;5071989;28;20124;-54
2022/12/28 07:16:18;;;;;;;18.48;9.45;;;-1.60;99.90;;;;;;5057981;28;20103;-53
2022/12/28 07:18:44;;;;;;;14.70;8.00;;;-1.60;99.90;;;;;;5053336;28;20033;-53
2022/12/28 07:21:21;;;;;;;17.77;9.05;;;-1.60;99.90;;;;;;5052664;28;20036;-53
2022/12/28 07:23:48;;;;;;;17.35;8.57;;;-1.70;99.90;;;;;;5053278;28;20483;-51
2022/12/28 07:26:20;;;;;;;19.27;11.10;;;-1.70;99.90;;;;;;5061611;28;20028;-51
2022/12/28 07:28:47;;;;;;;27.98;11.98;;;-1.60;99.90;;;;;;5073046;28;20029;-51
2022/12/28 07:31:15;;;;;;;12.55;9.63;;;-1.60;99.90;;;;;;5071200;28;20024;-49
2022/12/28 07:33:42;;;;;;;24.02;14.77;;;-1.70;99.90;;;;;;5071843;28;20028;-50
2022/12/28 07:36:11;;;;;;;34.60;16.85;;;-1.60;99.90;;;;;;5071536;28;20078;-51
2022/12/28 07:38:36;;;;;;;25.50;18.20;;;-1.70;99.90;;;;;;5070823;28;20032;-52
2022/12/28 07:41:23;;;;;;;24.00;17.10;;;-1.60;99.90;;;;;;5071471;28;20028;-52
2022/12/28 07:43:48;;;;;;;20.73;15.20;;;-1.50;99.90;;;;;;5071251;28;20063;-53
2022/12/28 07:46:17;;;;;;;22.20;16.05;;;-1.40;99.90;;;;;;5069261;28;20059;-50
2022/12/28 07:48:44;;;;;;;28.17;15.07;;;-1.30;99.90;;;;;;5054262;28;20040;-51
2022/12/28 07:51:36;;;;;;;22.85;15.63;;;-1.20;99.90;;;;;;5052311;28;20021;-50
2022/12/28 07:54:03;;;;;;;42.22;20.20;;;-1.10;99.90;;;;;;5069049;28;20028;-49
2022/12/28 07:56:30;;;;;;;33.20;19.65;;;-1.00;99.90;;;;;;5067963;28;20318;-55
2022/12/28 07:58:58;;;;;;;49.97;26.52;;;-0.90;99.90;;;;;;5066321;28;20068;-53
2022/12/28 08:01:26;;;;;;;35.58;20.88;;;-0.80;99.90;;;;;;5068586;28;20024;-51
2022/12/28 08:03:54;;;;;;;33.97;19.92;;;-0.70;99.90;;;;;;5069637;28;20016;-51
2022/12/28 08:06:22;;;;;;;37.67;20.10;;;-0.50;99.90;;;;;;5055129;28;20098;-52
2022/12/28 08:08:50;;;;;;;38.47;21.20;;;-0.40;99.90;;;;;;5049769;28;20467;-49
2022/12/28 08:11:17;;;;;;;42.65;20.63;;;-0.20;99.90;;;;;;5065559;28;20028;-51
2022/12/28 08:13:45;;;;;;;37.50;21.40;;;0.00;99.90;;;;;;5070896;28;20024;-52
2022/12/28 08:16:13;;;;;;;25.95;17.60;;;0.10;99.90;;;;;;5070864;28;20025;-52
2022/12/28 08:18:40;;;;;;;33.42;19.98;;;0.30;99.90;;;;;;5070404;28;20379;-53
2022/12/28 08:21:10;;;;;;;42.83;21.83;;;0.40;99.90;;;;;;5069489;28;20020;-49
2022/12/28 08:23:36;;;;;;;47.90;25.77;;;0.50;99.90;;;;;;5070694;28;20027;-51
2022/12/28 08:26:28;;;;;;;72.22;32.47;;;0.60;99.90;;;;;;5055657;28;20033;-53
2022/12/28 08:28:57;;;;;;;60.13;29.75;;;0.60;99.90;;;;;;5050803;28;20029;-52
2022/12/28 08:31:26;;;;;;;48.92;26.00;;;0.70;99.90;;;;;;5050017;28;20028;-52
2022/12/28 08:33:53;;;;;;;46.55;22.88;;;0.70;99.90;;;;;;5049055;28;20472;-52
2022/12/28 08:36:19;;;;;;;45.47;21.30;;;0.80;99.90;;;;;;5064544;28;20025;-52
2022/12/28 08:38:45;;;;;;;50.42;21.35;;;0.70;99.90;;;;;;5070594;28;20020;-52
2022/12/28 08:41:13;;;;;;;40.58;19.50;;;0.80;99.90;;;;;;5069879;28;20056;-50
2022/12/28 08:43:39;;;;;;;40.13;20.65;;;1.00;99.90;;;;;;5070427;28;20025;-52
2022/12/28 08:46:07;;;;;;;26.13;15.95;;;1.20;99.90;;;;;;5070638;28;20031;-54
2022/12/28 08:48:33;;;;;;;18.42;7.32;;;1.50;99.90;;;;;;5070277;28;20037;-53
2022/12/28 08:51:01;;;;;;;8.02;5.38;;;1.60;99.90;;;;;;5070361;28;20032;-53
2022/12/28 08:53:27;;;;;;;12.38;8.20;;;1.90;99.90;;;;;;5068303;28;20020;-49
2022/12/28 08:55:53;;;;;;;15.07;9.70;;;1.90;99.90;;;;;;5056503;28;20016;-52
2022/12/28 08:58:18;;;;;;;11.95;7.88;;;1.90;99.90;;;;;;5050219;28;20506;-51
2022/12/28 09:00:44;;;;;;;10.65;8.25;;;1.70;99.90;;;;;;5050305;28;20513;-55
2022/12/28 09:03:09;;;;;;;11.05;7.80;;;1.70;99.90;;;;;;5050312;28;20214;-52
2022/12/28 09:05:39;;;;;;;12.05;7.10;;;1.60;99.90;;;;;;5050016;28;20031;-49
2022/12/28 09:08:05;;;;;;;23.98;15.50;;;1.60;99.90;;;;;;5050275;28;20017;-51
2022/12/28 09:10:30;;;;;;;16.90;13.27;;;1.70;99.90;;;;;;5061376;28;20058;-53
2022/12/28 09:12:56;;;;;;;10.68;6.88;;;1.90;99.90;;;;;;5069910;28;20506;-53
2022/12/28 09:15:23;;;;;;;17.80;9.30;;;2.10;99.90;;;;;;5055068;28;20515;-56
2022/12/28 09:17:48;;;;;;;12.55;6.78;;;2.20;99.90;;;;;;5071052;28;20028;-51
2022/12/28 09:20:14;;;;;;;20.13;10.18;;;2.30;99.90;;;;;;5062392;28;20709;-52
2022/12/28 09:22:40;;;;;;;17.20;13.68;;;2.50;99.90;;;;;;5049675;28;20036;-55
2022/12/28 09:25:06;;;;;;;13.27;10.60;;;2.90;99.90;;;;;;5051282;28;20033;-50
2022/12/28 09:27:31;;;;;;;11.93;9.43;;;3.00;99.90;;;;;;5060331;28;20067;-52
2022/12/28 09:29:57;;;;;;;12.40;7.80;;;3.10;99.90;;;;;;5070940;28;20025;-54
2022/12/28 09:32:23;;;;;;;8.73;7.80;;;3.20;99.90;;;;;;5069735;28;20103;-53
2022/12/28 09:34:48;;;;;;;7.30;6.60;;;3.30;99.90;;;;;;5070780;28;20028;-53
2022/12/28 09:37:14;;;;;;;20.83;14.57;;;3.40;99.90;;;;;;5061514;28;20492;-52
2022/12/28 09:39:40;;;;;;;12.48;9.40;;;3.50;99.90;;;;;;5040001;28;20029;-52
2022/12/28 09:42:16;;;;;;;17.55;9.40;;;3.40;99.90;;;;;;5039895;28;20380;-52
2022/12/28 09:44:45;;;;;;;17.17;10.88;;;3.50;99.90;;;;;;5044852;28;20056;-51
2022/12/28 09:47:27;;;;;;;32.67;19.40;;;3.60;99.90;;;;;;5060103;28;20028;-50
2022/12/28 09:50:11;;;;;;;14.27;10.50;;;3.70;99.90;;;;;;5074778;28;20028;-52
2022/12/28 09:52:51;;;;;;;13.50;10.45;;;3.70;99.90;;;;;;5074834;28;20028;-51
2022/12/28 09:55:24;;;;;;;17.27;11.43;;;3.90;99.90;;;;;;5072205;28;20029;-56
2022/12/28 09:57:54;;;;;;;9.05;6.97;;;4.10;99.90;;;;;;5073671;28;20020;-53
2022/12/28 10:00:44;;;;;;;8.35;6.47;;;4.60;99.90;;;;;;5073188;28;20480;-51
2022/12/28 10:03:23;;;;;;;11.80;6.10;;;4.90;99.90;;;;;;5072956;28;20043;-52
2022/12/28 10:05:50;;;;;;;11.40;5.40;;;5.20;99.90;;;;;;5073480;28;20039;-55
2022/12/28 10:08:19;;;;;;;15.60;6.38;;;5.40;99.90;;;;;;5073350;28;20036;-51
2022/12/28 10:10:46;;;;;;;10.80;6.60;;;5.60;99.90;;;;;;5072234;28;20071;-54
2022/12/28 10:13:48;;;;;;;12.90;7.68;;;5.50;99.90;;;;;;5073031;28;20685;-53
2022/12/28 10:16:18;;;;;;;13.00;6.22;;;5.50;99.90;;;;;;5074282;28;20021;-49
2022/12/28 10:18:45;;;;;;;14.40;6.10;;;5.30;99.90;;;;;;5073950;28;20383;-51
2022/12/28 10:21:12;;;;;;;9.27;6.05;;;5.10;99.90;;;;;;5073826;28;20631;-52
2022/12/28 10:23:40;;;;;;;16.40;8.93;;;5.20;99.90;;;;;;5067450;28;20367;-54
2022/12/28 10:26:06;;;;;;;14.80;11.20;;;6.10;99.90;;;;;;5067695;28;20082;-52
2022/12/28 10:28:59;;;;;;;7.85;5.78;;;7.40;99.90;;;;;;5073372;28;20087;-55
2022/12/28 10:31:38;;;;;;;6.82;5.30;;;8.10;99.90;;;;;;5072000;28;20068;-54
2022/12/28 10:34:15;;;;;;;11.57;5.35;;;8.40;99.90;;;;;;5073841;28;20524;-52
2022/12/28 10:36:42;;;;;;;8.45;6.63;;;8.90;99.90;;;;;;5071929;28;20540;-52
2022/12/28 10:39:20;;;;;;;11.80;6.88;;;8.80;99.80;;;;;;5072803;28;20036;-56
2022/12/28 10:41:47;;;;;;;9.98;5.45;;;8.80;99.30;;;;;;5073357;28;20020;-55
2022/12/28 10:44:30;;;;;;;7.45;4.60;;;9.50;98.20;;;;;;5073033;28;20059;-54
2022/12/28 10:47:00;;;;;;;8.07;4.55;;;9.70;96.60;;;;;;5073769;28;20060;-50
2022/12/28 10:49:30;;;;;;;5.63;3.95;;;9.40;95.60;;;;;;5064957;28;20040;-52
2022/12/28 10:52:19;;;;;;;6.75;5.15;;;8.90;96.10;;;;;;5057360;28;20017;-53
2022/12/28 10:54:47;;;;;;;4.40;4.00;;;8.40;97.50;;;;;;5069204;28;20100;-54
2022/12/28 10:57:27;;;;;;;4.78;4.30;;;8.50;98.00;;;;;;5073554;28;20023;-51
2022/12/28 11:00:14;;;;;;;12.88;5.85;;;8.20;98.60;;;;;;5073697;28;20020;-51
2022/12/28 11:02:39;;;;;;;6.18;3.95;;;8.00;98.80;;;;;;5073522;28;20036;-50
2022/12/28 11:05:05;;;;;;;4.97;3.88;;;7.70;99.30;;;;;;5073515;28;20037;-52
2022/12/28 11:07:38;;;;;;;8.82;4.30;;;8.40;98.70;;;;;;5073020;28;20033;-56
2022/12/28 11:10:19;;;;;;;11.43;7.50;;;8.70;99.10;;;;;;5073342;28;20123;-53
2022/12/28 11:12:45;;;;;;;5.22;3.65;;;9.10;97.90;;;;;;5073244;28;20021;-56
2022/12/28 11:15:16;;;;;;;5.45;3.60;;;9.80;96.30;;;;;;5073035;28;20655;-53
2022/12/28 11:17:44;;;;;;;4.68;3.40;;;9.80;95.00;;;;;;5073276;28;20047;-55
2022/12/28 11:20:17;;;;;;;5.03;4.03;;;9.90;94.80;;;;;;5072553;28;20047;-51
2022/12/28 11:22:43;;;;;;;3.67;3.15;;;9.80;96.30;;;;;;5073221;28;20528;-54
2022/12/28 11:25:16;;;;;;;4.30;3.17;;;10.10;95.40;;;;;;5062911;28;20101;-56
2022/12/28 11:27:42;;;;;;;4.18;3.22;;;10.70;93.80;;;;;;5061259;28;20041;-51
2022/12/28 11:30:16;;;;;;;4.55;3.15;;;10.90;93.60;;;;;;5073276;28;20082;-54
2022/12/28 11:32:54;;;;;;;11.55;4.22;;;11.00;93.20;;;;;;5072918;28;20013;-53
2022/12/28 11:35:23;;;;;;;5.70;4.05;;;10.90;92.90;;;;;;5072855;28;20019;-54
2022/12/28 11:37:55;;;;;;;4.22;3.58;;;10.70;93.00;;;;;;5071474;28;20024;-56
2022/12/28 11:40:42;;;;;;;4.38;3.92;;;10.40;93.60;;;;;;5072517;28;20108;-54
2022/12/28 11:44:03;;;;;;;6.10;3.95;;;10.10;93.90;;;;;;5072208;28;20071;-54
2022/12/28 11:46:29;;;;;;;6.90;3.95;;;9.70;95.20;;;;;;5062490;28;20511;-55
2022/12/28 11:49:25;;;;;;;5.18;3.70;;;9.10;95.70;;;;;;5072859;28;20058;-55
2022/12/28 11:52:15;;;;;;;5.93;4.10;;;9.20;96.50;;;;;;5072677;28;20033;-54
2022/12/28 11:54:53;;;;;;;16.05;8.32;;;9.50;94.90;;;;;;5071933;28;20028;-51
2022/12/28 11:57:37;;;;;;;6.07;4.50;;;9.20;96.30;;;;;;5070906;28;20111;-55
2022/12/28 12:00:18;;;;;;;13.40;6.55;;;9.50;95.80;;;;;;5072624;28;20040;-53
2022/12/28 12:03:01;;;;;;;9.02;4.07;;;10.20;95.00;;;;;;5072262;28;20033;-54
2022/12/28 12:05:35;;;;;;;19.25;7.57;;;10.80;92.80;;;;;;5072028;28;20024;-55
2022/12/28 12:08:21;;;;;;;76.32;34.10;;;11.60;91.80;;;;;;5072382;28;20268;-56
2022/12/28 12:10:48;;;;;;;7.72;3.38;;;12.20;89.40;;;;;;5072050;28;20396;-53
2022/12/28 12:13:25;;;;;;;4.00;2.97;;;13.10;86.10;;;;;;5072293;28;20121;-56
2022/12/28 12:15:59;;;;;;;7.00;3.40;;;13.40;85.00;;;;;;5071292;28;20349;-54
2022/12/28 12:18:28;;;;;;;4.28;2.75;;;13.20;83.80;;;;;;5071399;28;20103;-52
2022/12/28 12:21:06;;;;;;;2.67;2.20;;;12.60;84.70;;;;;;5066499;28;20487;-54
2022/12/28 12:23:47;;;;;;;4.93;3.53;;;12.50;85.10;;;;;;5071487;28;20032;-55
2022/12/28 12:26:34;;;;;;;4.10;3.13;;;11.60;86.50;;;;;;5071797;28;20055;-53
2022/12/28 12:29:22;;;;;;;4.07;3.35;;;11.70;87.90;;;;;;5072061;28;20483;-53
2022/12/28 12:32:02;;;;;;;8.15;3.42;;;13.10;85.30;;;;;;5067436;28;20524;-54
2022/12/28 12:34:48;;;;;;;3.92;2.80;;;13.70;81.70;;;;;;5059060;28;20115;-56
2022/12/28 12:37:32;;;;;;;5.07;3.25;;;14.50;79.70;;;;;;5054258;28;20120;-55
2022/12/28 12:40:00;;;;;;;3.83;3.05;;;14.40;77.60;;;;;;5071684;28;20036;-52
2022/12/28 12:42:47;;;;;;;4.70;3.92;;;14.20;77.90;;;;;;5071605;28;20020;-55
2022/12/28 12:45:20;;;;;;;4.15;3.10;;;13.70;78.90;;;;;;5070204;28;20052;-52
2022/12/28 12:48:30;;;;;;;5.28;2.92;;;13.20;80.50;;;;;;5071843;28;20040;-55
2022/12/28 12:50:58;;;;;;;5.80;4.05;;;13.70;79.30;;;;;;5051569;28;20605;-54
2022/12/28 12:53:45;;;;;;;3.40;3.08;;;12.80;81.40;;;;;;5051642;28;20029;-53
2022/12/28 12:56:43;;;;;;;5.97;4.05;;;12.50;82.90;;;;;;5067758;28;20013;-56
2022/12/28 12:59:32;;;;;;;7.85;4.40;;;12.20;84.80;;;;;;5070964;28;20020;-53
2022/12/28 13:02:24;;;;;;;5.78;4.38;;;12.10;85.90;;;;;;5071633;28;20029;-53
2022/12/28 13:04:50;;;;;;;5.43;3.42;;;12.60;85.60;;;;;;5054189;28;20044;-53
2022/12/28 13:07:21;;;;;;;4.10;3.00;;;13.10;84.10;;;;;;5051363;28;20104;-56
2022/12/28 13:09:48;;;;;;;3.72;3.08;;;13.60;83.30;;;;;;5054814;28;20101;-53
2022/12/28 13:12:16;;;;;;;5.60;3.47;;;14.50;80.60;;;;;;5070802;28;20095;-55
2022/12/28 13:14:47;;;;;;;5.55;3.38;;;15.60;77.50;;;;;;5071360;28;20012;-57
2022/12/28 13:17:17;;;;;;;5.72;2.95;;;16.90;73.90;;;;;;5071218;28;20403;-56
2022/12/28 13:19:43;;;;;;;5.60;3.45;;;17.30;71.50;;;;;;5064209;28;20491;-57
2022/12/28 13:22:32;;;;;;;5.05;2.90;;;17.50;68.70;;;;;;5060914;28;20100;-51
2022/12/28 13:24:58;;;;;;;3.75;2.83;;;18.90;65.80;;;;;;5050793;28;20048;-54
2022/12/28 13:27:32;;;;;;;43.55;20.77;;;20.10;62.40;;;;;;5069078;28;20033;-53
2022/12/28 13:29:57;;;;;;;6.88;4.70;;;20.20;58.60;;;;;;5069718;28;20056;-53
2022/12/28 13:32:33;;;;;;;20.45;8.82;;;19.20;59.90;;;;;;5056248;28;20385;-55